Terminal Aerodrome Forecast
Issued by NWS

Current Version | Previous Version | Text Only | Print | Product List | Glossary On
Versions: 1 2 3 4 5 6 7 8 9 10 11 12 13 14 15 16 17 18 19 20 21 22 23 24 25 26 27 28 29 30
000
FTUS41 KBUF 282329
TAFJHW
TAF
KJHW 282329Z 2900/2924 VRB03KT P6SM FEW045
     FM290200 09004KT P6SM FEW250
     FM290400 13004KT P6SM SCT250
     FM290600 16005KT 2SM BR SCT250
     FM291300 20004KT P6SM BKN200
     FM291500 25004KT P6SM BKN140
     FM291700 VRB03KT P6SM BKN080
     FM292200 VRB03KT P6SM BKN130
      AMD LTD TO CLD VIS AND WIND=

USA.gov is the U.S. government's official web portal to all federal, state and local government web resources and services.